createdAt,value
2018-07-15T00:00:25.913Z,19.50
2018-07-15T00:02:54.769Z,19.50
2018-07-15T00:05:23.635Z,19.50
2018-07-15T00:07:52.495Z,19.50
2018-07-15T00:10:21.379Z,19.50
2018-07-15T00:12:50.258Z,19.50
2018-07-15T00:15:19.161Z,19.40
2018-07-15T00:17:47.984Z,19.50
2018-07-15T00:20:16.871Z,19.50
2018-07-15T00:22:45.835Z,19.40
2018-07-15T00:25:14.633Z,19.30
2018-07-15T00:27:43.500Z,19.20
2018-07-15T00:30:12.369Z,19.00
2018-07-15T00:32:41.221Z,18.80
2018-07-15T00:35:10.048Z,18.60
2018-07-15T00:37:38.933Z,18.50
2018-07-15T00:40:08.351Z,18.30
2018-07-15T00:42:37.185Z,18.20
2018-07-15T00:45:06.053Z,18.10
2018-07-15T00:47:34.892Z,18.00
2018-07-15T00:50:03.742Z,17.90
2018-07-15T00:52:32.760Z,17.90
2018-07-15T00:55:01.645Z,17.90
2018-07-15T00:57:30.490Z,17.90
2018-07-15T00:59:59.357Z,18.00
2018-07-15T01:02:28.205Z,17.90
2018-07-15T01:04:57.047Z,17.90
2018-07-15T01:07:25.912Z,18.00
2018-07-15T01:09:54.868Z,17.90
2018-07-15T01:12:23.677Z,17.90
2018-07-15T01:14:52.537Z,18.10
2018-07-15T01:17:21.389Z,18.10
2018-07-15T01:19:50.245Z,18.20
2018-07-15T01:22:19.125Z,18.30
2018-07-15T01:24:47.940Z,18.40
2018-07-15T01:27:17.001Z,18.50
2018-07-15T01:29:45.872Z,18.60
2018-07-15T01:32:14.785Z,18.60
2018-07-15T01:34:43.646Z,18.60
2018-07-15T01:37:12.507Z,18.50
2018-07-15T01:39:41.345Z,18.50
2018-07-15T01:42:10.199Z,18.50
2018-07-15T01:44:39.050Z,18.50
2018-07-15T01:47:07.905Z,18.50
2018-07-15T01:49:36.757Z,18.50
2018-07-15T01:52:06.000Z,18.40
2018-07-15T01:54:35.029Z,18.40
2018-07-15T01:57:03.881Z,18.40
2018-07-15T01:59:32.750Z,18.30
2018-07-15T02:02:01.582Z,18.30
2018-07-15T02:04:30.461Z,18.20
2018-07-15T02:06:59.304Z,18.20
2018-07-15T02:09:28.156Z,18.10
2018-07-15T02:11:57.050Z,18.00
2018-07-15T02:14:25.938Z,17.90
2018-07-15T02:16:54.780Z,17.90
2018-07-15T02:19:23.636Z,17.80
2018-07-15T02:21:52.505Z,17.80
2018-07-15T02:24:21.350Z,17.70
2018-07-15T02:26:50.500Z,17.60
2018-07-15T02:31:47.901Z,17.30
2018-07-15T02:34:16.783Z,17.20
2018-07-15T02:36:45.681Z,17.20
2018-07-15T02:39:14.490Z,17.20
2018-07-15T02:41:43.430Z,17.30
2018-07-15T02:44:12.320Z,17.20
2018-07-15T02:46:41.133Z,17.00
2018-07-15T02:49:09.993Z,16.90
2018-07-15T02:51:38.843Z,17.00
2018-07-15T02:54:07.920Z,17.10
2018-07-15T02:56:36.764Z,17.20
2018-07-15T02:59:05.873Z,17.40
2018-07-15T03:01:34.681Z,17.50
2018-07-15T03:06:32.113Z,17.50
2018-07-15T03:09:00.952Z,17.40
2018-07-15T03:11:30.023Z,17.50
2018-07-15T03:13:58.821Z,17.60
2018-07-15T03:16:27.734Z,17.60
2018-07-15T03:18:56.577Z,17.60
2018-07-15T03:21:25.453Z,17.50
2018-07-15T03:23:54.297Z,17.50
2018-07-15T03:26:23.177Z,17.40
2018-07-15T03:28:52.017Z,17.30
2018-07-15T03:31:20.873Z,17.30
2018-07-15T03:33:49.835Z,17.30
2018-07-15T03:36:18.687Z,17.20
2018-07-15T03:38:47.521Z,17.20
2018-07-15T03:41:16.406Z,17.10
2018-07-15T03:43:45.240Z,17.20
2018-07-15T03:46:14.092Z,17.20
2018-07-15T03:48:42.953Z,17.20
2018-07-15T03:51:11.869Z,17.20
2018-07-15T03:53:40.685Z,17.20
2018-07-15T03:56:09.520Z,17.20
2018-07-15T03:58:38.438Z,17.30
2018-07-15T04:01:07.241Z,17.30
2018-07-15T04:03:36.109Z,17.30
2018-07-15T04:06:04.954Z,17.30
2018-07-15T04:08:33.929Z,17.30
2018-07-15T04:11:02.697Z,17.40
2018-07-15T04:13:31.553Z,17.40
2018-07-15T04:16:00.397Z,17.40
2018-07-15T04:18:29.293Z,17.50
2018-07-15T04:20:58.154Z,17.50
2018-07-15T04:23:26.992Z,17.50
2018-07-15T04:25:55.866Z,17.40
2018-07-15T04:28:24.799Z,17.40
2018-07-15T04:30:53.577Z,17.20
2018-07-15T04:33:22.439Z,17.10
2018-07-15T04:35:51.340Z,17.00
2018-07-15T04:38:20.200Z,17.10
2018-07-15T04:40:49.061Z,17.20
2018-07-15T04:43:17.925Z,17.30
2018-07-15T04:45:46.783Z,17.30
2018-07-15T04:48:15.624Z,17.20
2018-07-15T04:50:44.484Z,17.20
2018-07-15T04:53:13.345Z,17.20
2018-07-15T04:55:42.193Z,17.30
2018-07-15T04:58:11.058Z,17.50
2018-07-15T05:00:39.900Z,17.90
2018-07-15T05:03:08.737Z,18.90
2018-07-15T05:05:37.624Z,19.70
2018-07-15T05:08:06.498Z,20.10
2018-07-15T05:10:35.371Z,20.90
2018-07-15T05:13:04.224Z,21.50
2018-07-15T05:15:33.077Z,22.30
2018-07-15T05:18:02.035Z,22.50
2018-07-15T05:20:30.825Z,23.00
2018-07-15T05:22:59.689Z,22.90
2018-07-15T05:25:28.525Z,23.30
2018-07-15T05:30:25.944Z,23.20
2018-07-15T05:32:54.794Z,23.30
2018-07-15T05:35:23.637Z,23.50
2018-07-15T05:37:52.563Z,23.60
2018-07-15T05:40:21.432Z,24.30
2018-07-15T05:42:50.308Z,25.00
2018-07-15T05:45:19.161Z,25.40
2018-07-15T05:47:48.013Z,26.00
2018-07-15T05:50:16.928Z,26.60
2018-07-15T05:52:45.777Z,27.50
2018-07-15T05:55:14.701Z,28.30
2018-07-15T06:00:12.061Z,29.00
2018-07-15T06:02:40.930Z,29.30
2018-07-15T06:05:09.779Z,29.40
2018-07-15T06:07:38.645Z,29.30
2018-07-15T06:10:07.515Z,30.20
2018-07-15T06:12:36.353Z,30.80
2018-07-15T06:15:05.241Z,31.00
2018-07-15T06:17:34.361Z,30.80
2018-07-15T06:20:03.294Z,31.70
2018-07-15T06:22:32.146Z,30.70
2018-07-15T06:25:00.996Z,30.90
2018-07-15T06:27:29.855Z,30.70
2018-07-15T06:29:58.685Z,30.90
2018-07-15T06:32:27.638Z,31.20
2018-07-15T06:34:56.461Z,30.60
2018-07-15T06:37:25.323Z,30.70
2018-07-15T06:39:54.183Z,30.60
2018-07-15T06:42:23.203Z,31.50
2018-07-15T06:44:52.001Z,30.90
2018-07-15T06:47:20.827Z,30.80
2018-07-15T06:49:49.701Z,32.20
2018-07-15T06:52:18.544Z,31.70
2018-07-15T06:54:47.401Z,30.70
2018-07-15T06:57:16.282Z,31.50
2018-07-15T06:59:45.106Z,31.40
2018-07-15T07:02:13.950Z,32.20
2018-07-15T07:07:11.351Z,32.30
2018-07-15T07:09:40.195Z,32.00
2018-07-15T07:12:09.076Z,31.90
2018-07-15T07:14:38.002Z,31.80
2018-07-15T07:19:35.369Z,30.40
2018-07-15T07:22:04.267Z,31.00
2018-07-15T07:24:33.121Z,31.70
2018-07-15T07:27:01.983Z,31.70
2018-07-15T07:29:30.829Z,30.70
2018-07-15T07:34:28.157Z,32.60
2018-07-15T07:36:57.041Z,32.70
2018-07-15T07:39:25.906Z,32.50
2018-07-15T07:41:54.758Z,31.70
2018-07-15T07:49:20.612Z,29.70
2018-07-15T07:54:17.964Z,28.10
2018-07-15T07:56:46.820Z,28.20
2018-07-15T07:59:15.686Z,27.90
2018-07-15T08:04:13.076Z,28.80
2018-07-15T08:06:41.932Z,29.40
2018-07-15T08:09:10.779Z,30.20
2018-07-15T08:11:39.628Z,30.70
2018-07-15T08:14:08.489Z,30.70
2018-07-15T08:16:37.360Z,31.20
2018-07-15T08:19:06.224Z,31.30
2018-07-15T08:21:35.101Z,32.30
2018-07-15T08:24:03.965Z,32.30
2018-07-15T08:26:32.817Z,32.30
2018-07-15T08:29:01.677Z,32.60
2018-07-15T08:31:30.565Z,33.00
2018-07-15T08:33:59.457Z,33.20
2018-07-15T08:36:28.337Z,33.90
2018-07-15T08:38:57.201Z,35.30
2018-07-15T08:43:54.572Z,36.10
2018-07-15T08:46:23.426Z,36.90
2018-07-15T08:48:52.306Z,37.10
2018-07-15T08:51:21.168Z,37.50
2018-07-15T08:53:50.022Z,35.60
2018-07-15T08:56:18.901Z,35.80
2018-07-15T08:58:47.777Z,37.00
2018-07-15T09:01:16.617Z,38.00
2018-07-15T09:03:45.550Z,37.20
2018-07-15T09:06:14.433Z,37.30
2018-07-15T09:08:43.270Z,37.70
2018-07-15T09:11:12.144Z,37.10
2018-07-15T09:13:40.990Z,36.70
2018-07-15T09:16:09.844Z,34.80
2018-07-15T09:18:38.711Z,34.00
2018-07-15T09:21:07.625Z,33.40
2018-07-15T09:23:36.488Z,33.40
2018-07-15T09:26:05.338Z,33.80
2018-07-15T09:28:34.167Z,33.30
2018-07-15T09:31:03.016Z,31.90
2018-07-15T09:33:31.844Z,32.60
2018-07-15T09:36:00.702Z,33.00
2018-07-15T09:38:30.067Z,33.50
2018-07-15T09:40:58.913Z,33.40
2018-07-15T09:43:27.742Z,33.40
2018-07-15T09:45:56.637Z,33.30
2018-07-15T09:48:25.441Z,32.20
2018-07-15T09:50:54.280Z,31.50
2018-07-15T09:53:23.214Z,31.50
2018-07-15T09:55:52.040Z,32.40
2018-07-15T09:58:20.894Z,32.20
2018-07-15T10:00:56.777Z,32.40
2018-07-15T10:03:26.849Z,32.30
2018-07-15T10:05:55.729Z,31.30
2018-07-15T10:08:24.582Z,31.90
2018-07-15T10:10:53.416Z,32.70
2018-07-15T10:13:22.277Z,31.90
2018-07-15T10:15:51.147Z,31.00
2018-07-15T10:18:19.989Z,30.30
2018-07-15T10:20:48.873Z,30.20
2018-07-15T10:23:17.791Z,29.90
2018-07-15T10:25:46.576Z,29.60
2018-07-15T10:28:15.436Z,29.20
2018-07-15T10:30:44.265Z,29.00
2018-07-15T10:33:13.323Z,29.00
2018-07-15T10:35:42.152Z,29.20
2018-07-15T10:38:11.005Z,29.40
2018-07-15T10:40:39.841Z,29.40
2018-07-15T10:43:08.709Z,29.70
2018-07-15T10:45:37.557Z,29.80
2018-07-15T10:48:06.411Z,29.60
2018-07-15T10:50:35.252Z,29.50
2018-07-15T10:53:04.173Z,29.50
2018-07-15T10:55:32.968Z,29.30
2018-07-15T10:58:01.808Z,28.50
2018-07-15T11:00:30.649Z,28.50
2018-07-15T11:02:59.497Z,28.70
2018-07-15T11:05:28.397Z,28.80
2018-07-15T11:07:57.267Z,28.60
2018-07-15T11:10:26.126Z,28.30
2018-07-15T11:12:55.007Z,28.20
2018-07-15T11:15:23.872Z,27.90
2018-07-15T11:17:52.723Z,27.70
2018-07-15T11:20:21.553Z,27.40
2018-07-15T11:22:50.421Z,27.20
2018-07-15T11:25:19.269Z,27.00
2018-07-15T11:27:48.108Z,26.80
2018-07-15T11:30:16.961Z,26.60
2018-07-15T11:32:45.817Z,26.50
2018-07-15T11:35:14.661Z,26.20
2018-07-15T11:37:43.489Z,25.90
2018-07-15T11:40:12.382Z,25.80
2018-07-15T11:42:41.224Z,25.50
2018-07-15T11:45:10.089Z,25.40
2018-07-15T11:47:38.954Z,25.30
2018-07-15T11:50:16.626Z,25.10
2018-07-15T11:52:47.734Z,24.90
2018-07-15T11:55:16.590Z,24.70
2018-07-15T11:57:45.769Z,24.60
2018-07-15T12:00:14.620Z,24.40
2018-07-15T12:02:43.464Z,23.90
2018-07-15T12:05:12.305Z,23.90
2018-07-15T12:07:41.255Z,23.60
2018-07-15T12:10:10.050Z,23.30
2018-07-15T12:12:38.913Z,23.10
2018-07-15T12:15:07.745Z,23.00
2018-07-15T12:17:36.598Z,22.60
2018-07-15T12:20:05.461Z,22.20
2018-07-15T12:22:34.300Z,22.00
2018-07-15T12:25:03.145Z,21.90
2018-07-15T12:27:32.017Z,21.80
2018-07-15T12:30:00.865Z,21.70
2018-07-15T12:32:29.692Z,21.60
2018-07-15T12:34:58.535Z,21.80
2018-07-15T12:37:28.385Z,21.80
2018-07-15T12:39:57.346Z,22.00
2018-07-15T12:42:26.153Z,22.30
2018-07-15T12:44:55.009Z,22.60
2018-07-15T12:47:23.862Z,22.90
2018-07-15T12:49:52.708Z,23.40
2018-07-15T12:52:21.582Z,23.70
2018-07-15T12:54:50.421Z,23.50
2018-07-15T12:57:19.279Z,23.60
2018-07-15T12:59:48.118Z,24.10
2018-07-15T13:02:16.980Z,23.50
2018-07-15T13:07:14.297Z,23.20
2018-07-15T13:09:43.162Z,23.20
2018-07-15T13:12:11.993Z,23.50
2018-07-15T13:14:40.833Z,24.30
2018-07-15T13:17:09.709Z,25.00
2018-07-15T13:19:38.564Z,25.60
2018-07-15T13:22:07.424Z,26.00
2018-07-15T13:24:36.273Z,26.20
2018-07-15T13:29:33.690Z,26.40
2018-07-15T13:32:02.523Z,25.90
2018-07-15T13:34:31.361Z,25.90
2018-07-15T13:37:00.207Z,25.80
2018-07-15T13:39:29.052Z,26.10
2018-07-15T13:41:57.961Z,26.00
2018-07-15T13:44:26.737Z,25.90
2018-07-15T13:46:55.589Z,25.30
2018-07-15T13:49:24.451Z,24.80
2018-07-15T13:51:53.309Z,24.80
2018-07-15T13:54:22.152Z,24.40
2018-07-15T13:56:51.011Z,24.20
2018-07-15T13:59:19.915Z,24.00
2018-07-15T14:01:48.722Z,24.10
2018-07-15T14:06:46.105Z,24.20
2018-07-15T14:09:14.941Z,24.10
2018-07-15T14:11:43.801Z,23.70
2018-07-15T14:14:12.616Z,23.60
2018-07-15T14:16:41.477Z,23.40
2018-07-15T14:19:10.305Z,23.50
2018-07-15T14:21:39.160Z,23.10
2018-07-15T14:24:08.010Z,23.60
2018-07-15T14:26:36.921Z,24.10
2018-07-15T14:29:05.797Z,24.60
2018-07-15T14:31:34.637Z,24.50
2018-07-15T14:34:03.589Z,24.30
2018-07-15T14:36:32.447Z,24.30
2018-07-15T14:39:01.284Z,24.50
2018-07-15T14:41:30.152Z,24.70
2018-07-15T14:43:59.013Z,24.80
2018-07-15T14:46:27.864Z,24.50
2018-07-15T14:48:56.701Z,24.20
2018-07-15T14:51:25.593Z,24.10
2018-07-15T14:53:54.420Z,24.20
2018-07-15T14:58:51.765Z,23.90
2018-07-15T15:01:20.609Z,23.70
2018-07-15T15:03:49.451Z,23.50
2018-07-15T15:06:18.359Z,23.60
2018-07-15T15:08:47.169Z,23.80
2018-07-15T15:11:16.009Z,24.10
2018-07-15T15:13:44.877Z,24.30
2018-07-15T15:16:13.714Z,24.20
2018-07-15T15:18:42.602Z,24.00
2018-07-15T15:21:11.445Z,23.90
2018-07-15T15:23:40.480Z,24.00
2018-07-15T15:26:09.292Z,24.10
2018-07-15T15:28:38.132Z,24.20
2018-07-15T15:31:06.997Z,24.20
2018-07-15T15:33:35.906Z,24.00
2018-07-15T15:36:04.761Z,23.80
2018-07-15T15:38:33.585Z,23.80
2018-07-15T15:41:02.476Z,23.80
2018-07-15T15:43:31.325Z,23.80
2018-07-15T15:48:28.748Z,23.70
2018-07-15T15:50:57.605Z,23.80
2018-07-15T15:53:26.553Z,23.90
2018-07-15T15:55:55.360Z,23.90
2018-07-15T15:58:24.217Z,24.00
2018-07-15T16:00:53.053Z,24.20
2018-07-15T16:03:22.159Z,24.00
2018-07-15T16:05:51.017Z,24.10
2018-07-15T16:08:19.869Z,24.30
2018-07-15T16:10:48.792Z,24.40
2018-07-15T16:13:17.597Z,24.10
2018-07-15T16:15:46.437Z,23.80
2018-07-15T16:18:15.314Z,23.80
2018-07-15T16:20:44.177Z,23.80
2018-07-15T16:23:13.068Z,23.90
2018-07-15T16:25:41.861Z,23.90
2018-07-15T16:28:10.700Z,23.50
2018-07-15T16:30:39.611Z,23.40
2018-07-15T16:33:08.429Z,23.30
2018-07-15T16:35:37.301Z,23.30
2018-07-15T16:38:06.178Z,23.50
2018-07-15T16:40:35.009Z,23.40
2018-07-15T16:43:03.873Z,23.40
2018-07-15T16:45:32.724Z,23.20
2018-07-15T16:48:01.645Z,23.10
2018-07-15T16:50:30.637Z,23.10
2018-07-15T16:52:59.453Z,22.90
2018-07-15T16:57:56.994Z,22.80
2018-07-15T17:00:25.862Z,22.70
2018-07-15T17:02:54.732Z,22.70
2018-07-15T17:05:23.558Z,22.70
2018-07-15T17:07:52.405Z,22.70
2018-07-15T17:10:21.375Z,22.60
2018-07-15T17:12:50.220Z,22.60
2018-07-15T17:15:19.139Z,22.60
2018-07-15T17:17:48.132Z,22.50
2018-07-15T17:20:16.956Z,22.50
2018-07-15T17:22:45.797Z,22.40
2018-07-15T17:25:14.836Z,22.30
2018-07-15T17:27:43.700Z,22.20
2018-07-15T17:30:12.561Z,22.10
2018-07-15T17:32:41.421Z,22.00
2018-07-15T17:35:10.249Z,22.00
2018-07-15T17:37:39.157Z,22.00
2018-07-15T17:40:07.949Z,22.00
2018-07-15T17:42:36.801Z,22.00
2018-07-15T17:45:05.665Z,22.00
2018-07-15T17:47:34.530Z,21.90
2018-07-15T17:50:03.373Z,21.90
2018-07-15T17:52:32.221Z,22.00
2018-07-15T17:55:01.073Z,22.00
2018-07-15T17:57:29.923Z,21.90
2018-07-15T17:59:58.786Z,21.90
2018-07-15T18:04:56.245Z,22.00
2018-07-15T18:07:25.129Z,21.90
2018-07-15T18:09:53.945Z,21.90
2018-07-15T18:12:22.916Z,21.90
2018-07-15T18:14:51.734Z,21.80
2018-07-15T18:17:20.594Z,21.70
2018-07-15T18:19:49.500Z,21.70
2018-07-15T18:22:18.382Z,21.70
2018-07-15T18:24:47.270Z,21.60
2018-07-15T18:27:16.209Z,21.60
2018-07-15T18:29:45.026Z,21.50
2018-07-15T18:32:13.945Z,21.60
2018-07-15T18:34:42.893Z,21.60
2018-07-15T18:37:11.722Z,21.60
2018-07-15T18:39:40.550Z,21.60
2018-07-15T18:42:09.438Z,21.50
2018-07-15T18:44:38.268Z,21.50
2018-07-15T18:47:07.155Z,21.40
2018-07-15T18:49:35.988Z,21.40
2018-07-15T18:52:04.841Z,21.30
2018-07-15T18:54:33.757Z,21.20
2018-07-15T18:57:02.574Z,21.20
2018-07-15T18:59:31.461Z,21.20
2018-07-15T19:02:00.373Z,21.00
2018-07-15T19:04:29.296Z,20.90
2018-07-15T19:06:58.218Z,20.80
2018-07-15T19:09:27.155Z,20.70
2018-07-15T19:11:56.030Z,20.50
2018-07-15T19:14:24.880Z,20.30
2018-07-15T19:16:53.747Z,20.10
2018-07-15T19:19:22.575Z,20.00
2018-07-15T19:21:51.436Z,19.90
2018-07-15T19:24:20.277Z,19.90
2018-07-15T19:26:49.853Z,19.80
2018-07-15T19:29:18.661Z,19.70
2018-07-15T19:31:47.679Z,19.60
2018-07-15T19:34:16.436Z,19.50
2018-07-15T19:36:45.361Z,19.40
2018-07-15T19:39:14.217Z,19.30
2018-07-15T19:41:43.049Z,19.20
2018-07-15T19:44:11.948Z,19.00
2018-07-15T19:46:40.787Z,19.00
2018-07-15T19:51:38.172Z,18.70
2018-07-15T19:54:07.053Z,18.50
2018-07-15T19:56:35.884Z,18.40
2018-07-15T19:59:05.560Z,18.30
2018-07-15T20:01:34.396Z,18.20
2018-07-15T20:04:03.285Z,18.10
2018-07-15T20:06:32.126Z,18.00
2018-07-15T20:09:01.024Z,18.00
2018-07-15T20:11:29.897Z,17.90
2018-07-15T20:13:58.781Z,17.90
2018-07-15T20:16:27.676Z,17.90
2018-07-15T20:18:56.513Z,17.80
2018-07-15T20:21:25.538Z,17.90
2018-07-15T20:23:54.357Z,17.80
2018-07-15T20:26:23.209Z,17.80
2018-07-15T20:28:52.089Z,17.90
2018-07-15T20:31:20.953Z,17.80
2018-07-15T20:33:49.915Z,17.90
2018-07-15T20:36:18.740Z,17.90
2018-07-15T20:38:47.573Z,17.80
2018-07-15T20:41:16.421Z,17.90
2018-07-15T20:43:45.248Z,17.80
2018-07-15T20:46:14.142Z,17.80
2018-07-15T20:48:42.955Z,17.90
2018-07-15T20:51:11.801Z,17.90
2018-07-15T20:53:40.679Z,18.00
2018-07-15T20:56:09.562Z,18.10
2018-07-15T20:58:38.428Z,18.20
2018-07-15T21:01:07.268Z,18.30
2018-07-15T21:03:36.117Z,18.50
2018-07-15T21:06:04.997Z,18.50
2018-07-15T21:08:33.854Z,18.60
2018-07-15T21:11:02.694Z,18.70
2018-07-15T21:13:31.565Z,18.70
2018-07-15T21:16:00.457Z,18.70
2018-07-15T21:18:29.421Z,18.60
2018-07-15T21:20:58.276Z,18.60
2018-07-15T21:23:27.137Z,18.60
2018-07-15T21:28:24.567Z,18.70
2018-07-15T21:30:53.411Z,18.60
2018-07-15T21:33:22.268Z,18.70
2018-07-15T21:35:51.124Z,18.70
2018-07-15T21:38:19.981Z,18.70
2018-07-15T21:40:48.835Z,18.70
2018-07-15T21:43:17.692Z,18.60
2018-07-15T21:45:46.537Z,18.50
2018-07-15T21:48:15.425Z,18.40
2018-07-15T21:50:44.277Z,18.40
2018-07-15T21:53:13.117Z,18.30
2018-07-15T21:55:41.986Z,18.30
2018-07-15T21:58:10.881Z,18.30
2018-07-15T22:00:39.724Z,18.30
2018-07-15T22:03:08.598Z,18.30
2018-07-15T22:05:37.519Z,18.40
2018-07-15T22:08:17.685Z,18.50
2018-07-15T22:10:47.475Z,18.50
2018-07-15T22:13:16.369Z,18.40
2018-07-15T22:15:45.228Z,18.50
2018-07-15T22:18:14.086Z,18.50
2018-07-15T22:20:42.995Z,18.50
2018-07-15T22:23:11.855Z,18.40
2018-07-15T22:25:40.716Z,18.40
2018-07-15T22:28:09.589Z,18.40
2018-07-15T22:30:38.422Z,18.50
2018-07-15T22:33:07.354Z,18.50
2018-07-15T22:38:04.762Z,18.40
2018-07-15T22:40:33.608Z,18.40
2018-07-15T22:43:02.461Z,18.40
2018-07-15T22:45:31.383Z,18.40
2018-07-15T22:48:00.193Z,18.30
2018-07-15T22:50:29.041Z,18.20
2018-07-15T22:52:57.889Z,18.30
2018-07-15T22:55:26.764Z,18.20
2018-07-15T22:57:55.633Z,18.10
2018-07-15T23:00:24.521Z,18.20
2018-07-15T23:02:53.365Z,18.10
2018-07-15T23:05:44.349Z,18.10
2018-07-15T23:08:13.345Z,18.00
2018-07-15T23:10:42.177Z,18.00
2018-07-15T23:13:11.644Z,17.90
2018-07-15T23:15:40.853Z,18.00
2018-07-15T23:18:09.713Z,17.90
2018-07-15T23:20:39.438Z,17.90
2018-07-15T23:23:09.045Z,17.90
2018-07-15T23:25:37.911Z,18.00
2018-07-15T23:28:07.749Z,17.90
2018-07-15T23:30:37.353Z,17.90
2018-07-15T23:33:06.837Z,17.80
2018-07-15T23:35:35.698Z,17.80
2018-07-15T23:38:04.748Z,17.70
2018-07-15T23:40:33.602Z,17.60
2018-07-15T23:43:02.845Z,17.60
2018-07-15T23:45:32.754Z,17.60
2018-07-15T23:50:30.190Z,17.60
2018-07-15T23:52:59.053Z,17.60
2018-07-15T23:55:27.905Z,17.60
